TimeCDT,TemperatureF,Dew PointF,Humidity,Sea Level PressureIn,VisibilityMPH,Wind Direction,Wind SpeedMPH,Gust SpeedMPH,PrecipitationIn,Events,Conditions,WindDirDegrees,DateUTC
12:53 AM,53.1,48.0,83,30.05,10.0,Calm,Calm,-,N/A,,Clear,0,2014-03-22 05:53:00
1:53 AM,52.0,48.0,86,30.04,9.0,Calm,Calm,-,N/A,,Clear,0,2014-03-22 06:53:00
2:53 AM,53.1,48.0,83,30.04,8.0,Calm,Calm,-,N/A,,Clear,0,2014-03-22 07:53:00
3:53 AM,52.0,48.0,86,30.04,5.0,Calm,Calm,-,N/A,,Clear,0,2014-03-22 08:53:00
4:53 AM,51.1,48.0,89,30.05,6.0,Calm,Calm,-,N/A,,Clear,0,2014-03-22 09:53:00
5:18 AM,51.1,48.0,89,30.06,5.0,Calm,Calm,-,N/A,,Scattered Clouds,0,2014-03-22 10:18:00
5:53 AM,51.1,48.0,89,30.06,6.0,Calm,Calm,-,N/A,,Clear,0,2014-03-22 10:53:00
6:00 AM,52.0,48.0,86,30.07,6.0,Calm,Calm,-,N/A,,Scattered Clouds,0,2014-03-22 11:00:00
6:09 AM,51.1,48.0,89,30.07,5.0,Calm,Calm,-,N/A,,Mostly Cloudy,0,2014-03-22 11:09:00
6:51 AM,51.8,50.0,94,30.08,1.8,Calm,Calm,-,N/A,,Overcast,0,2014-03-22 11:51:00
6:53 AM,52.0,50.0,93,30.08,1.5,Calm,Calm,-,N/A,,Overcast,0,2014-03-22 11:53:00
7:05 AM,52.0,50.0,93,30.08,0.2,Calm,Calm,-,N/A,Fog,Fog,0,2014-03-22 12:05:00
7:53 AM,53.1,51.1,93,30.09,0.2,Calm,Calm,-,N/A,Fog,Fog,0,2014-03-22 12:53:00
8:53 AM,57.0,54.0,89,30.10,0.2,Calm,Calm,-,N/A,Fog,Fog,0,2014-03-22 13:53:00
9:16 AM,57.9,55.0,90,30.11,1.8,Calm,Calm,-,N/A,,Mostly Cloudy,0,2014-03-22 14:16:00
9:22 AM,57.9,55.0,90,30.11,3.0,Calm,Calm,-,N/A,,Mostly Cloudy,0,2014-03-22 14:22:00
9:31 AM,60.1,55.9,86,30.10,5.0,Calm,Calm,-,N/A,,Scattered Clouds,0,2014-03-22 14:31:00
9:53 AM,66.0,55.0,68,30.09,8.0,Calm,Calm,-,N/A,,Clear,0,2014-03-22 14:53:00
10:53 AM,73.0,53.1,49,30.08,10.0,Variable,3.5,-,N/A,,Clear,0,2014-03-22 15:53:00
11:53 AM,73.9,50.0,43,30.06,10.0,Calm,Calm,-,N/A,,Clear,0,2014-03-22 16:53:00
12:53 PM,77.0,46.9,34,30.04,10.0,Variable,3.5,-,N/A,,Clear,0,2014-03-22 17:53:00
1:53 PM,79.0,46.0,31,30.01,10.0,Variable,4.6,-,N/A,,Partly Cloudy,0,2014-03-22 18:53:00
2:20 PM,79.0,46.9,32,30.01,10.0,Variable,5.8,-,N/A,,Mostly Cloudy,0,2014-03-22 19:20:00
2:53 PM,80.1,46.9,31,29.99,10.0,SE,4.6,-,N/A,,Overcast,130,2014-03-22 19:53:00
3:53 PM,81.0,46.0,29,29.98,10.0,Calm,Calm,-,N/A,,Mostly Cloudy,0,2014-03-22 20:53:00
4:07 PM,81.0,46.0,29,29.99,10.0,Variable,4.6,-,N/A,,Scattered Clouds,0,2014-03-22 21:07:00
4:53 PM,81.0,46.0,29,29.97,10.0,SSW,8.1,-,N/A,,Partly Cloudy,200,2014-03-22 21:53:00
5:53 PM,80.1,45.0,29,29.98,10.0,Calm,Calm,-,N/A,,Clear,0,2014-03-22 22:53:00
6:53 PM,73.0,51.1,46,30.00,10.0,Calm,Calm,-,N/A,,Clear,0,2014-03-22 23:53:00
7:53 PM,69.1,53.1,57,30.02,10.0,Calm,Calm,-,N/A,,Clear,0,2014-03-23 00:53:00
8:53 PM,70.0,57.0,63,30.04,9.0,SSW,11.5,-,N/A,,Mostly Cloudy,200,2014-03-23 01:53:00
9:53 PM,66.9,57.9,73,30.06,6.0,SW,5.8,-,N/A,,Haze,230,2014-03-23 02:53:00
10:53 PM,64.0,57.0,78,30.06,10.0,Calm,Calm,-,N/A,,Mostly Cloudy,0,2014-03-23 03:53:00
11:53 PM,61.0,57.0,87,30.04,9.0,South,4.6,-,N/A,,Clear,180,2014-03-23 04:53:00